sensor_id;sensor_type;location;lat;lon;timestamp;P1;durP1;ratioP1;P2;durP2;ratioP2
10847;SDS011;5477;48.806;9.154;2023-08-24T00:00:40;8.50;;;5.33;;
10847;SDS011;5477;48.806;9.154;2023-08-24T00:03:09;6.53;;;5.00;;
10847;SDS011;5477;48.806;9.154;2023-08-24T00:05:37;5.80;;;5.00;;
10847;SDS011;5477;48.806;9.154;2023-08-24T00:08:08;5.67;;;4.87;;
10847;SDS011;5477;48.806;9.154;2023-08-24T00:10:37;8.37;;;5.70;;
10847;SDS011;5477;48.806;9.154;2023-08-24T00:13:05;7.63;;;5.23;;
10847;SDS011;5477;48.806;9.154;2023-08-24T00:15:33;6.70;;;4.60;;
10847;SDS011;5477;48.806;9.154;2023-08-24T00:18:02;8.80;;;5.13;;
10847;SDS011;5477;48.806;9.154;2023-08-24T00:20:31;8.43;;;5.37;;
10847;SDS011;5477;48.806;9.154;2023-08-24T00:22:59;6.17;;;5.57;;
10847;SDS011;5477;48.806;9.154;2023-08-24T00:25:30;5.87;;;5.10;;
10847;SDS011;5477;48.806;9.154;2023-08-24T00:28:01;9.63;;;6.00;;
10847;SDS011;5477;48.806;9.154;2023-08-24T00:30:30;8.03;;;5.77;;
10847;SDS011;5477;48.806;9.154;2023-08-24T00:32:58;6.47;;;4.57;;
10847;SDS011;5477;48.806;9.154;2023-08-24T00:35:26;5.80;;;5.20;;
10847;SDS011;5477;48.806;9.154;2023-08-24T00:37:55;8.80;;;5.70;;
10847;SDS011;5477;48.806;9.154;2023-08-24T00:40:23;6.83;;;5.53;;
10847;SDS011;5477;48.806;9.154;2023-08-24T00:42:54;8.73;;;5.37;;
10847;SDS011;5477;48.806;9.154;2023-08-24T00:45:22;5.47;;;4.80;;
10847;SDS011;5477;48.806;9.154;2023-08-24T00:47:54;7.60;;;5.20;;
10847;SDS011;5477;48.806;9.154;2023-08-24T00:50:25;7.33;;;4.97;;
10847;SDS011;5477;48.806;9.154;2023-08-24T00:52:54;5.60;;;5.00;;
10847;SDS011;5477;48.806;9.154;2023-08-24T00:55:25;6.70;;;5.67;;
10847;SDS011;5477;48.806;9.154;2023-08-24T00:57:59;7.80;;;5.77;;
10847;SDS011;5477;48.806;9.154;2023-08-24T01:00:32;7.47;;;5.90;;
10847;SDS011;5477;48.806;9.154;2023-08-24T01:03:02;8.20;;;5.70;;
10847;SDS011;5477;48.806;9.154;2023-08-24T01:05:31;7.03;;;6.00;;
10847;SDS011;5477;48.806;9.154;2023-08-24T01:07:59;7.97;;;5.37;;
10847;SDS011;5477;48.806;9.154;2023-08-24T01:10:30;5.70;;;5.10;;
10847;SDS011;5477;48.806;9.154;2023-08-24T01:13:07;7.93;;;5.80;;
10847;SDS011;5477;48.806;9.154;2023-08-24T01:15:38;8.70;;;5.33;;
10847;SDS011;5477;48.806;9.154;2023-08-24T01:18:15;6.17;;;5.57;;
10847;SDS011;5477;48.806;9.154;2023-08-24T01:20:46;5.90;;;5.23;;
10847;SDS011;5477;48.806;9.154;2023-08-24T01:23:19;5.97;;;5.30;;
10847;SDS011;5477;48.806;9.154;2023-08-24T01:26:11;7.43;;;5.57;;
10847;SDS011;5477;48.806;9.154;2023-08-24T01:28:41;5.73;;;5.20;;
10847;SDS011;5477;48.806;9.154;2023-08-24T01:31:10;7.80;;;5.73;;
10847;SDS011;5477;48.806;9.154;2023-08-24T01:33:40;5.97;;;5.13;;
10847;SDS011;5477;48.806;9.154;2023-08-24T01:36:08;6.73;;;5.83;;
10847;SDS011;5477;48.806;9.154;2023-08-24T01:38:39;6.47;;;5.73;;
10847;SDS011;5477;48.806;9.154;2023-08-24T01:41:09;7.47;;;6.03;;
10847;SDS011;5477;48.806;9.154;2023-08-24T01:43:43;8.50;;;5.60;;
10847;SDS011;5477;48.806;9.154;2023-08-24T01:46:15;7.10;;;5.93;;
10847;SDS011;5477;48.806;9.154;2023-08-24T01:48:45;8.70;;;5.87;;
10847;SDS011;5477;48.806;9.154;2023-08-24T01:51:14;8.00;;;6.10;;
10847;SDS011;5477;48.806;9.154;2023-08-24T01:53:43;9.37;;;5.83;;
10847;SDS011;5477;48.806;9.154;2023-08-24T01:56:15;7.90;;;5.73;;
10847;SDS011;5477;48.806;9.154;2023-08-24T01:58:43;6.10;;;5.50;;
10847;SDS011;5477;48.806;9.154;2023-08-24T02:01:12;6.70;;;6.00;;
10847;SDS011;5477;48.806;9.154;2023-08-24T02:03:40;7.20;;;6.00;;
10847;SDS011;5477;48.806;9.154;2023-08-24T02:06:08;7.63;;;5.70;;
10847;SDS011;5477;48.806;9.154;2023-08-24T02:08:37;8.07;;;6.07;;
10847;SDS011;5477;48.806;9.154;2023-08-24T02:11:05;8.00;;;5.73;;
10847;SDS011;5477;48.806;9.154;2023-08-24T02:13:37;6.97;;;6.27;;
10847;SDS011;5477;48.806;9.154;2023-08-24T02:16:07;7.40;;;5.90;;
10847;SDS011;5477;48.806;9.154;2023-08-24T02:18:36;10.13;;;6.20;;
10847;SDS011;5477;48.806;9.154;2023-08-24T02:21:07;7.63;;;5.90;;
10847;SDS011;5477;48.806;9.154;2023-08-24T02:23:37;7.20;;;6.40;;
10847;SDS011;5477;48.806;9.154;2023-08-24T02:26:05;7.77;;;6.07;;
10847;SDS011;5477;48.806;9.154;2023-08-24T02:28:36;6.40;;;5.77;;
10847;SDS011;5477;48.806;9.154;2023-08-24T02:31:05;7.47;;;6.17;;
10847;SDS011;5477;48.806;9.154;2023-08-24T02:33:34;8.33;;;5.90;;
10847;SDS011;5477;48.806;9.154;2023-08-24T02:36:02;7.40;;;6.23;;
10847;SDS011;5477;48.806;9.154;2023-08-24T02:38:30;8.03;;;6.07;;
10847;SDS011;5477;48.806;9.154;2023-08-24T02:41:02;7.43;;;5.97;;
10847;SDS011;5477;48.806;9.154;2023-08-24T02:43:30;6.33;;;5.73;;
10847;SDS011;5477;48.806;9.154;2023-08-24T02:46:01;8.17;;;6.10;;
10847;SDS011;5477;48.806;9.154;2023-08-24T02:48:31;9.20;;;6.20;;
10847;SDS011;5477;48.806;9.154;2023-08-24T02:51:01;6.70;;;6.00;;
10847;SDS011;5477;48.806;9.154;2023-08-24T02:53:30;8.10;;;5.87;;
10847;SDS011;5477;48.806;9.154;2023-08-24T02:55:59;7.37;;;5.50;;
10847;SDS011;5477;48.806;9.154;2023-08-24T02:58:28;7.90;;;6.03;;
10847;SDS011;5477;48.806;9.154;2023-08-24T03:00:56;8.00;;;6.00;;
10847;SDS011;5477;48.806;9.154;2023-08-24T03:03:26;7.93;;;6.30;;
10847;SDS011;5477;48.806;9.154;2023-08-24T03:05:55;8.00;;;6.20;;
10847;SDS011;5477;48.806;9.154;2023-08-24T03:08:26;7.00;;;6.40;;
10847;SDS011;5477;48.806;9.154;2023-08-24T03:10:55;7.53;;;6.03;;
10847;SDS011;5477;48.806;9.154;2023-08-24T03:13:24;7.97;;;5.90;;
10847;SDS011;5477;48.806;9.154;2023-08-24T03:15:53;9.10;;;6.23;;
10847;SDS011;5477;48.806;9.154;2023-08-24T03:18:27;9.30;;;6.40;;
10847;SDS011;5477;48.806;9.154;2023-08-24T03:20:55;6.70;;;5.87;;
10847;SDS011;5477;48.806;9.154;2023-08-24T03:23:23;7.37;;;6.33;;
10847;SDS011;5477;48.806;9.154;2023-08-24T03:25:51;7.63;;;6.27;;
10847;SDS011;5477;48.806;9.154;2023-08-24T03:28:20;7.47;;;6.60;;
10847;SDS011;5477;48.806;9.154;2023-08-24T03:30:48;8.83;;;6.43;;
10847;SDS011;5477;48.806;9.154;2023-08-24T03:33:18;7.27;;;6.40;;
10847;SDS011;5477;48.806;9.154;2023-08-24T03:35:48;10.17;;;7.80;;
10847;SDS011;5477;48.806;9.154;2023-08-24T03:38:17;7.17;;;6.47;;
10847;SDS011;5477;48.806;9.154;2023-08-24T03:40:45;7.10;;;6.30;;
10847;SDS011;5477;48.806;9.154;2023-08-24T03:43:13;8.57;;;6.77;;
10847;SDS011;5477;48.806;9.154;2023-08-24T03:45:41;8.90;;;6.50;;
10847;SDS011;5477;48.806;9.154;2023-08-24T03:48:10;7.37;;;6.37;;
10847;SDS011;5477;48.806;9.154;2023-08-24T03:50:38;7.27;;;6.50;;
10847;SDS011;5477;48.806;9.154;2023-08-24T03:53:07;8.07;;;7.03;;
10847;SDS011;5477;48.806;9.154;2023-08-24T03:55:35;7.70;;;6.50;;
10847;SDS011;5477;48.806;9.154;2023-08-24T03:58:04;8.57;;;6.83;;
10847;SDS011;5477;48.806;9.154;2023-08-24T04:00:32;7.97;;;6.77;;
10847;SDS011;5477;48.806;9.154;2023-08-24T04:03:00;8.57;;;6.60;;
10847;SDS011;5477;48.806;9.154;2023-08-24T04:05:30;6.90;;;6.23;;
10847;SDS011;5477;48.806;9.154;2023-08-24T04:07:58;7.07;;;6.37;;
10847;SDS011;5477;48.806;9.154;2023-08-24T04:10:29;7.20;;;6.50;;
10847;SDS011;5477;48.806;9.154;2023-08-24T04:12:57;7.70;;;6.87;;
10847;SDS011;5477;48.806;9.154;2023-08-24T04:15:26;8.63;;;6.40;;
10847;SDS011;5477;48.806;9.154;2023-08-24T04:17:54;7.43;;;6.60;;
10847;SDS011;5477;48.806;9.154;2023-08-24T04:20:23;7.13;;;6.43;;
10847;SDS011;5477;48.806;9.154;2023-08-24T04:22:51;8.00;;;6.33;;
10847;SDS011;5477;48.806;9.154;2023-08-24T04:25:19;6.80;;;6.20;;
10847;SDS011;5477;48.806;9.154;2023-08-24T04:27:49;7.70;;;6.77;;
10847;SDS011;5477;48.806;9.154;2023-08-24T04:30:17;8.97;;;7.17;;
10847;SDS011;5477;48.806;9.154;2023-08-24T04:32:46;7.80;;;6.70;;
10847;SDS011;5477;48.806;9.154;2023-08-24T04:35:14;8.37;;;6.57;;
10847;SDS011;5477;48.806;9.154;2023-08-24T04:37:42;7.90;;;6.83;;
10847;SDS011;5477;48.806;9.154;2023-08-24T04:40:10;6.93;;;6.20;;
10847;SDS011;5477;48.806;9.154;2023-08-24T04:42:38;9.80;;;6.43;;
10847;SDS011;5477;48.806;9.154;2023-08-24T04:45:08;10.10;;;6.47;;
10847;SDS011;5477;48.806;9.154;2023-08-24T04:47:36;9.80;;;6.97;;
10847;SDS011;5477;48.806;9.154;2023-08-24T04:50:05;8.87;;;6.43;;
10847;SDS011;5477;48.806;9.154;2023-08-24T04:52:34;7.70;;;6.70;;
10847;SDS011;5477;48.806;9.154;2023-08-24T04:55:02;8.13;;;6.83;;
10847;SDS011;5477;48.806;9.154;2023-08-24T04:57:31;6.60;;;6.00;;
10847;SDS011;5477;48.806;9.154;2023-08-24T04:59:59;11.10;;;6.80;;
10847;SDS011;5477;48.806;9.154;2023-08-24T05:02:28;7.17;;;6.43;;
10847;SDS011;5477;48.806;9.154;2023-08-24T05:04:57;7.83;;;6.40;;
10847;SDS011;5477;48.806;9.154;2023-08-24T05:07:25;9.40;;;6.30;;
10847;SDS011;5477;48.806;9.154;2023-08-24T05:09:53;6.83;;;6.13;;
10847;SDS011;5477;48.806;9.154;2023-08-24T05:12:21;8.43;;;7.10;;
10847;SDS011;5477;48.806;9.154;2023-08-24T05:14:49;8.90;;;6.80;;
10847;SDS011;5477;48.806;9.154;2023-08-24T05:17:17;7.37;;;6.70;;
10847;SDS011;5477;48.806;9.154;2023-08-24T05:19:49;7.13;;;6.53;;
10847;SDS011;5477;48.806;9.154;2023-08-24T05:22:20;7.37;;;6.67;;
10847;SDS011;5477;48.806;9.154;2023-08-24T05:24:48;8.53;;;6.90;;
10847;SDS011;5477;48.806;9.154;2023-08-24T05:27:16;8.07;;;7.20;;
10847;SDS011;5477;48.806;9.154;2023-08-24T05:29:44;10.57;;;7.13;;
10847;SDS011;5477;48.806;9.154;2023-08-24T05:32:12;10.47;;;6.90;;
10847;SDS011;5477;48.806;9.154;2023-08-24T05:34:40;8.33;;;7.50;;
10847;SDS011;5477;48.806;9.154;2023-08-24T05:37:09;11.43;;;6.97;;
10847;SDS011;5477;48.806;9.154;2023-08-24T05:39:37;8.47;;;7.10;;
10847;SDS011;5477;48.806;9.154;2023-08-24T05:42:05;8.87;;;7.27;;
10847;SDS011;5477;48.806;9.154;2023-08-24T05:44:34;9.00;;;7.43;;
10847;SDS011;5477;48.806;9.154;2023-08-24T05:47:02;9.97;;;7.77;;
10847;SDS011;5477;48.806;9.154;2023-08-24T05:49:30;8.23;;;7.20;;
10847;SDS011;5477;48.806;9.154;2023-08-24T05:51:58;7.93;;;7.03;;
10847;SDS011;5477;48.806;9.154;2023-08-24T05:54:27;8.20;;;6.40;;
10847;SDS011;5477;48.806;9.154;2023-08-24T05:56:55;7.07;;;6.23;;
10847;SDS011;5477;48.806;9.154;2023-08-24T05:59:26;9.10;;;6.33;;
10847;SDS011;5477;48.806;9.154;2023-08-24T06:01:55;7.90;;;6.77;;
10847;SDS011;5477;48.806;9.154;2023-08-24T06:04:23;11.87;;;7.00;;
10847;SDS011;5477;48.806;9.154;2023-08-24T06:06:51;8.93;;;7.00;;
10847;SDS011;5477;48.806;9.154;2023-08-24T06:09:19;12.53;;;7.43;;
10847;SDS011;5477;48.806;9.154;2023-08-24T06:11:49;12.40;;;7.30;;
10847;SDS011;5477;48.806;9.154;2023-08-24T06:14:17;10.90;;;7.40;;
10847;SDS011;5477;48.806;9.154;2023-08-24T06:16:45;9.63;;;7.30;;
10847;SDS011;5477;48.806;9.154;2023-08-24T06:19:15;8.07;;;6.70;;
10847;SDS011;5477;48.806;9.154;2023-08-24T06:21:43;8.47;;;6.77;;
10847;SDS011;5477;48.806;9.154;2023-08-24T06:24:10;7.13;;;6.27;;
10847;SDS011;5477;48.806;9.154;2023-08-24T06:26:38;7.10;;;5.97;;
10847;SDS011;5477;48.806;9.154;2023-08-24T06:29:08;7.50;;;6.10;;
10847;SDS011;5477;48.806;9.154;2023-08-24T06:31:36;7.10;;;6.40;;
10847;SDS011;5477;48.806;9.154;2023-08-24T06:34:04;8.80;;;6.20;;
10847;SDS011;5477;48.806;9.154;2023-08-24T06:36:32;11.03;;;7.37;;
10847;SDS011;5477;48.806;9.154;2023-08-24T06:39:00;9.87;;;7.10;;
10847;SDS011;5477;48.806;9.154;2023-08-24T06:41:32;12.20;;;8.13;;
10847;SDS011;5477;48.806;9.154;2023-08-24T06:44:07;9.83;;;7.47;;
10847;SDS011;5477;48.806;9.154;2023-08-24T06:46:35;9.40;;;7.30;;
10847;SDS011;5477;48.806;9.154;2023-08-24T06:49:03;8.67;;;6.17;;
10847;SDS011;5477;48.806;9.154;2023-08-24T06:51:31;10.30;;;6.30;;
10847;SDS011;5477;48.806;9.154;2023-08-24T06:53:59;6.77;;;5.50;;
10847;SDS011;5477;48.806;9.154;2023-08-24T06:56:27;8.13;;;5.97;;
10847;SDS011;5477;48.806;9.154;2023-08-24T06:58:55;9.50;;;6.47;;
10847;SDS011;5477;48.806;9.154;2023-08-24T07:01:24;8.27;;;5.70;;
10847;SDS011;5477;48.806;9.154;2023-08-24T07:03:53;10.70;;;6.53;;
10847;SDS011;5477;48.806;9.154;2023-08-24T07:06:21;11.97;;;6.57;;
10847;SDS011;5477;48.806;9.154;2023-08-24T07:08:49;11.17;;;7.70;;
10847;SDS011;5477;48.806;9.154;2023-08-24T07:11:17;9.03;;;6.53;;
10847;SDS011;5477;48.806;9.154;2023-08-24T07:13:46;8.63;;;7.20;;
10847;SDS011;5477;48.806;9.154;2023-08-24T07:16:16;9.47;;;7.03;;
10847;SDS011;5477;48.806;9.154;2023-08-24T07:18:45;10.07;;;6.87;;
10847;SDS011;5477;48.806;9.154;2023-08-24T07:21:13;11.00;;;7.40;;
10847;SDS011;5477;48.806;9.154;2023-08-24T07:23:43;12.53;;;7.23;;
10847;SDS011;5477;48.806;9.154;2023-08-24T07:26:12;12.53;;;6.87;;
10847;SDS011;5477;48.806;9.154;2023-08-24T07:28:40;12.43;;;7.07;;
10847;SDS011;5477;48.806;9.154;2023-08-24T07:31:08;7.77;;;6.97;;
10847;SDS011;5477;48.806;9.154;2023-08-24T07:33:37;11.10;;;6.67;;
10847;SDS011;5477;48.806;9.154;2023-08-24T07:36:07;9.23;;;6.83;;
10847;SDS011;5477;48.806;9.154;2023-08-24T07:38:35;12.87;;;7.27;;
10847;SDS011;5477;48.806;9.154;2023-08-24T07:41:03;11.30;;;6.57;;
10847;SDS011;5477;48.806;9.154;2023-08-24T07:43:32;13.13;;;7.37;;
10847;SDS011;5477;48.806;9.154;2023-08-24T07:46:01;14.03;;;7.00;;
10847;SDS011;5477;48.806;9.154;2023-08-24T07:48:33;11.50;;;6.87;;
10847;SDS011;5477;48.806;9.154;2023-08-24T07:51:02;8.87;;;6.50;;
10847;SDS011;5477;48.806;9.154;2023-08-24T07:53:31;17.77;;;15.43;;
10847;SDS011;5477;48.806;9.154;2023-08-24T07:56:00;7.23;;;6.00;;
10847;SDS011;5477;48.806;9.154;2023-08-24T07:58:28;7.33;;;5.37;;
10847;SDS011;5477;48.806;9.154;2023-08-24T08:00:58;8.50;;;5.50;;
10847;SDS011;5477;48.806;9.154;2023-08-24T08:03:27;7.37;;;5.57;;
10847;SDS011;5477;48.806;9.154;2023-08-24T08:05:57;7.73;;;5.30;;
10847;SDS011;5477;48.806;9.154;2023-08-24T08:08:25;6.50;;;4.83;;
10847;SDS011;5477;48.806;9.154;2023-08-24T08:11:01;6.17;;;4.80;;
10847;SDS011;5477;48.806;9.154;2023-08-24T08:13:29;8.60;;;5.00;;
10847;SDS011;5477;48.806;9.154;2023-08-24T08:16:01;7.37;;;4.90;;
10847;SDS011;5477;48.806;9.154;2023-08-24T08:18:31;6.63;;;4.80;;
10847;SDS011;5477;48.806;9.154;2023-08-24T08:20:59;10.73;;;5.10;;
10847;SDS011;5477;48.806;9.154;2023-08-24T08:23:28;7.53;;;5.03;;
10847;SDS011;5477;48.806;9.154;2023-08-24T08:25:56;5.77;;;4.97;;
10847;SDS011;5477;48.806;9.154;2023-08-24T08:28:25;9.73;;;5.33;;
10847;SDS011;5477;48.806;9.154;2023-08-24T08:30:53;8.03;;;4.73;;
10847;SDS011;5477;48.806;9.154;2023-08-24T08:33:22;4.90;;;4.40;;
10847;SDS011;5477;48.806;9.154;2023-08-24T08:35:50;6.60;;;4.17;;
10847;SDS011;5477;48.806;9.154;2023-08-24T08:38:18;9.97;;;4.80;;
10847;SDS011;5477;48.806;9.154;2023-08-24T08:40:48;7.63;;;5.00;;
10847;SDS011;5477;48.806;9.154;2023-08-24T08:43:17;10.47;;;4.50;;
10847;SDS011;5477;48.806;9.154;2023-08-24T08:45:47;9.70;;;4.93;;
10847;SDS011;5477;48.806;9.154;2023-08-24T08:48:16;5.40;;;4.33;;
10847;SDS011;5477;48.806;9.154;2023-08-24T08:50:45;8.23;;;4.23;;
10847;SDS011;5477;48.806;9.154;2023-08-24T08:53:15;6.47;;;4.47;;
10847;SDS011;5477;48.806;9.154;2023-08-24T08:55:44;10.15;;;4.30;;
10847;SDS011;5477;48.806;9.154;2023-08-24T08:58:12;8.10;;;4.47;;
10847;SDS011;5477;48.806;9.154;2023-08-24T09:00:40;8.07;;;4.57;;
10847;SDS011;5477;48.806;9.154;2023-08-24T09:03:10;6.67;;;4.20;;
10847;SDS011;5477;48.806;9.154;2023-08-24T09:05:40;8.40;;;4.15;;
10847;SDS011;5477;48.806;9.154;2023-08-24T09:08:08;9.43;;;4.18;;
10847;SDS011;5477;48.806;9.154;2023-08-24T09:10:37;8.15;;;4.30;;
10847;SDS011;5477;48.806;9.154;2023-08-24T09:13:05;5.60;;;4.00;;
10847;SDS011;5477;48.806;9.154;2023-08-24T09:15:34;10.65;;;4.00;;
10847;SDS011;5477;48.806;9.154;2023-08-24T09:18:03;6.78;;;4.20;;
10847;SDS011;5477;48.806;9.154;2023-08-24T09:20:33;6.93;;;3.97;;
10847;SDS011;5477;48.806;9.154;2023-08-24T09:23:01;7.40;;;4.38;;
10847;SDS011;5477;48.806;9.154;2023-08-24T09:25:30;5.85;;;4.07;;
10847;SDS011;5477;48.806;9.154;2023-08-24T09:27:58;7.90;;;4.38;;
10847;SDS011;5477;48.806;9.154;2023-08-24T09:30:30;6.88;;;4.40;;
10847;SDS011;5477;48.806;9.154;2023-08-24T09:33:02;7.05;;;4.60;;
10847;SDS011;5477;48.806;9.154;2023-08-24T09:35:34;4.18;;;3.78;;
10847;SDS011;5477;48.806;9.154;2023-08-24T09:38:15;7.13;;;4.07;;
10847;SDS011;5477;48.806;9.154;2023-08-24T09:40:45;8.18;;;4.00;;
10847;SDS011;5477;48.806;9.154;2023-08-24T09:43:14;6.38;;;4.03;;
10847;SDS011;5477;48.806;9.154;2023-08-24T09:45:49;6.97;;;4.18;;
10847;SDS011;5477;48.806;9.154;2023-08-24T09:48:18;6.68;;;4.20;;
10847;SDS011;5477;48.806;9.154;2023-08-24T09:50:49;8.20;;;3.90;;
10847;SDS011;5477;48.806;9.154;2023-08-24T09:53:18;7.03;;;4.00;;
10847;SDS011;5477;48.806;9.154;2023-08-24T09:55:53;7.45;;;4.35;;
10847;SDS011;5477;48.806;9.154;2023-08-24T09:58:22;5.72;;;3.80;;
10847;SDS011;5477;48.806;9.154;2023-08-24T10:00:52;7.82;;;4.13;;
10847;SDS011;5477;48.806;9.154;2023-08-24T10:03:21;6.55;;;3.88;;
10847;SDS011;5477;48.806;9.154;2023-08-24T10:05:54;6.85;;;3.63;;
10847;SDS011;5477;48.806;9.154;2023-08-24T10:08:35;7.40;;;3.95;;
10847;SDS011;5477;48.806;9.154;2023-08-24T10:11:05;9.68;;;4.40;;
10847;SDS011;5477;48.806;9.154;2023-08-24T10:13:41;7.25;;;3.88;;
10847;SDS011;5477;48.806;9.154;2023-08-24T10:16:17;4.55;;;4.05;;
10847;SDS011;5477;48.806;9.154;2023-08-24T10:18:46;5.47;;;4.10;;
10847;SDS011;5477;48.806;9.154;2023-08-24T10:21:17;4.90;;;3.80;;
10847;SDS011;5477;48.806;9.154;2023-08-24T10:23:45;11.25;;;4.55;;
10847;SDS011;5477;48.806;9.154;2023-08-24T10:26:14;9.27;;;4.45;;
10847;SDS011;5477;48.806;9.154;2023-08-24T10:28:44;6.30;;;3.83;;
10847;SDS011;5477;48.806;9.154;2023-08-24T10:35:00;6.75;;;3.97;;
10847;SDS011;5477;48.806;9.154;2023-08-24T10:37:30;6.38;;;3.88;;
10847;SDS011;5477;48.806;9.154;2023-08-24T10:40:00;5.75;;;3.92;;
10847;SDS011;5477;48.806;9.154;2023-08-24T10:42:42;6.72;;;4.25;;
10847;SDS011;5477;48.806;9.154;2023-08-24T10:45:11;5.93;;;4.28;;
10847;SDS011;5477;48.806;9.154;2023-08-24T10:47:44;4.90;;;3.90;;
10847;SDS011;5477;48.806;9.154;2023-08-24T10:50:13;7.40;;;4.43;;
10847;SDS011;5477;48.806;9.154;2023-08-24T10:52:44;5.68;;;3.80;;
10847;SDS011;5477;48.806;9.154;2023-08-24T10:55:22;7.85;;;3.92;;
10847;SDS011;5477;48.806;9.154;2023-08-24T10:57:55;6.28;;;4.25;;
10847;SDS011;5477;48.806;9.154;2023-08-24T11:00:25;6.00;;;4.57;;
10847;SDS011;5477;48.806;9.154;2023-08-24T11:02:55;8.95;;;4.72;;
10847;SDS011;5477;48.806;9.154;2023-08-24T11:05:27;5.00;;;4.18;;
10847;SDS011;5477;48.806;9.154;2023-08-24T11:07:59;7.65;;;4.50;;
10847;SDS011;5477;48.806;9.154;2023-08-24T11:10:30;6.78;;;4.00;;
10847;SDS011;5477;48.806;9.154;2023-08-24T11:13:09;8.60;;;4.60;;
10847;SDS011;5477;48.806;9.154;2023-08-24T11:15:40;5.93;;;4.10;;
10847;SDS011;5477;48.806;9.154;2023-08-24T11:18:13;6.15;;;4.68;;
10847;SDS011;5477;48.806;9.154;2023-08-24T11:20:52;7.25;;;4.18;;
10847;SDS011;5477;48.806;9.154;2023-08-24T11:23:23;5.85;;;4.07;;
10847;SDS011;5477;48.806;9.154;2023-08-24T11:25:53;6.38;;;4.40;;
10847;SDS011;5477;48.806;9.154;2023-08-24T11:28:24;5.18;;;4.00;;
10847;SDS011;5477;48.806;9.154;2023-08-24T11:30:53;8.70;;;4.53;;
10847;SDS011;5477;48.806;9.154;2023-08-24T11:33:29;8.55;;;4.43;;
10847;SDS011;5477;48.806;9.154;2023-08-24T11:35:58;9.65;;;6.82;;
10847;SDS011;5477;48.806;9.154;2023-08-24T11:38:36;6.60;;;4.53;;
10847;SDS011;5477;48.806;9.154;2023-08-24T11:41:10;7.47;;;4.85;;
10847;SDS011;5477;48.806;9.154;2023-08-24T11:43:39;7.30;;;4.50;;
10847;SDS011;5477;48.806;9.154;2023-08-24T11:46:07;6.85;;;4.35;;
10847;SDS011;5477;48.806;9.154;2023-08-24T11:48:35;7.07;;;4.03;;
10847;SDS011;5477;48.806;9.154;2023-08-24T11:51:08;8.77;;;4.40;;
10847;SDS011;5477;48.806;9.154;2023-08-24T11:53:40;5.68;;;4.47;;
10847;SDS011;5477;48.806;9.154;2023-08-24T11:56:08;5.05;;;4.43;;
10847;SDS011;5477;48.806;9.154;2023-08-24T11:58:38;5.75;;;4.22;;
10847;SDS011;5477;48.806;9.154;2023-08-24T12:01:07;6.30;;;4.32;;
10847;SDS011;5477;48.806;9.154;2023-08-24T12:03:36;5.68;;;4.45;;
10847;SDS011;5477;48.806;9.154;2023-08-24T12:06:09;7.95;;;4.13;;
10847;SDS011;5477;48.806;9.154;2023-08-24T12:08:40;7.88;;;4.65;;
10847;SDS011;5477;48.806;9.154;2023-08-24T12:11:15;6.40;;;4.25;;
10847;SDS011;5477;48.806;9.154;2023-08-24T12:13:45;6.13;;;4.07;;
10847;SDS011;5477;48.806;9.154;2023-08-24T12:16:15;7.43;;;4.38;;
10847;SDS011;5477;48.806;9.154;2023-08-24T12:18:47;7.65;;;4.88;;
10847;SDS011;5477;48.806;9.154;2023-08-24T12:21:17;9.45;;;4.95;;
10847;SDS011;5477;48.806;9.154;2023-08-24T12:23:56;5.22;;;3.80;;
10847;SDS011;5477;48.806;9.154;2023-08-24T12:26:28;8.57;;;4.22;;
10847;SDS011;5477;48.806;9.154;2023-08-24T12:28:59;8.00;;;4.00;;
10847;SDS011;5477;48.806;9.154;2023-08-24T12:31:29;7.40;;;4.38;;
10847;SDS011;5477;48.806;9.154;2023-08-24T12:33:58;8.93;;;4.13;;
10847;SDS011;5477;48.806;9.154;2023-08-24T12:36:27;6.65;;;4.15;;
10847;SDS011;5477;48.806;9.154;2023-08-24T12:38:57;6.57;;;4.15;;
10847;SDS011;5477;48.806;9.154;2023-08-24T12:41:25;7.35;;;4.60;;
10847;SDS011;5477;48.806;9.154;2023-08-24T12:43:54;7.38;;;4.70;;
10847;SDS011;5477;48.806;9.154;2023-08-24T12:46:22;7.97;;;4.20;;
10847;SDS011;5477;48.806;9.154;2023-08-24T12:48:51;7.28;;;4.03;;
10847;SDS011;5477;48.806;9.154;2023-08-24T12:51:22;9.27;;;4.25;;
10847;SDS011;5477;48.806;9.154;2023-08-24T12:53:51;8.98;;;4.00;;
10847;SDS011;5477;48.806;9.154;2023-08-24T12:56:20;5.85;;;4.15;;
10847;SDS011;5477;48.806;9.154;2023-08-24T12:58:48;6.82;;;4.15;;
10847;SDS011;5477;48.806;9.154;2023-08-24T13:01:16;7.45;;;4.13;;
10847;SDS011;5477;48.806;9.154;2023-08-24T13:03:44;7.28;;;4.10;;
10847;SDS011;5477;48.806;9.154;2023-08-24T13:06:12;8.02;;;4.32;;
10847;SDS011;5477;48.806;9.154;2023-08-24T13:08:50;7.57;;;3.63;;
10847;SDS011;5477;48.806;9.154;2023-08-24T13:11:18;7.50;;;4.50;;
10847;SDS011;5477;48.806;9.154;2023-08-24T13:13:47;7.57;;;4.18;;
10847;SDS011;5477;48.806;9.154;2023-08-24T13:16:15;7.18;;;4.18;;
10847;SDS011;5477;48.806;9.154;2023-08-24T13:18:44;6.20;;;3.92;;
10847;SDS011;5477;48.806;9.154;2023-08-24T13:21:12;8.45;;;4.05;;
10847;SDS011;5477;48.806;9.154;2023-08-24T13:23:42;8.18;;;3.80;;
10847;SDS011;5477;48.806;9.154;2023-08-24T13:26:16;8.82;;;4.07;;
10847;SDS011;5477;48.806;9.154;2023-08-24T13:28:46;5.90;;;3.78;;
10847;SDS011;5477;48.806;9.154;2023-08-24T13:31:15;7.38;;;3.78;;
10847;SDS011;5477;48.806;9.154;2023-08-24T13:33:44;7.40;;;4.38;;
10847;SDS011;5477;48.806;9.154;2023-08-24T13:36:12;11.85;;;4.00;;
10847;SDS011;5477;48.806;9.154;2023-08-24T13:38:40;9.63;;;4.00;;
10847;SDS011;5477;48.806;9.154;2023-08-24T13:41:08;7.28;;;3.88;;
10847;SDS011;5477;48.806;9.154;2023-08-24T13:43:36;7.25;;;4.00;;
10847;SDS011;5477;48.806;9.154;2023-08-24T13:46:05;7.55;;;4.07;;
10847;SDS011;5477;48.806;9.154;2023-08-24T13:48:34;6.85;;;3.80;;
10847;SDS011;5477;48.806;9.154;2023-08-24T13:51:02;6.53;;;3.85;;
10847;SDS011;5477;48.806;9.154;2023-08-24T13:53:30;6.55;;;4.15;;
10847;SDS011;5477;48.806;9.154;2023-08-24T13:55:58;9.02;;;3.92;;
10847;SDS011;5477;48.806;9.154;2023-08-24T13:58:26;6.65;;;3.67;;
10847;SDS011;5477;48.806;9.154;2023-08-24T14:00:54;7.10;;;3.92;;
10847;SDS011;5477;48.806;9.154;2023-08-24T14:03:24;6.15;;;3.40;;
10847;SDS011;5477;48.806;9.154;2023-08-24T14:05:54;7.85;;;3.67;;
10847;SDS011;5477;48.806;9.154;2023-08-24T14:08:23;6.93;;;3.65;;
10847;SDS011;5477;48.806;9.154;2023-08-24T14:10:51;7.13;;;3.50;;
10847;SDS011;5477;48.806;9.154;2023-08-24T14:13:19;8.07;;;3.38;;
10847;SDS011;5477;48.806;9.154;2023-08-24T14:15:47;8.88;;;3.90;;
10847;SDS011;5477;48.806;9.154;2023-08-24T14:18:16;5.78;;;3.45;;
10847;SDS011;5477;48.806;9.154;2023-08-24T14:20:48;8.07;;;3.40;;
10847;SDS011;5477;48.806;9.154;2023-08-24T14:23:16;6.93;;;3.95;;
10847;SDS011;5477;48.806;9.154;2023-08-24T14:25:45;10.90;;;4.07;;
10847;SDS011;5477;48.806;9.154;2023-08-24T14:28:18;10.10;;;4.28;;
10847;SDS011;5477;48.806;9.154;2023-08-24T14:30:47;9.93;;;3.50;;
10847;SDS011;5477;48.806;9.154;2023-08-24T14:33:15;9.27;;;4.28;;
10847;SDS011;5477;48.806;9.154;2023-08-24T14:35:50;9.27;;;3.90;;
10847;SDS011;5477;48.806;9.154;2023-08-24T14:38:18;13.13;;;3.80;;
10847;SDS011;5477;48.806;9.154;2023-08-24T14:40:46;7.88;;;4.25;;
10847;SDS011;5477;48.806;9.154;2023-08-24T14:43:14;9.18;;;4.03;;
10847;SDS011;5477;48.806;9.154;2023-08-24T14:45:42;13.27;;;4.20;;
10847;SDS011;5477;48.806;9.154;2023-08-24T14:48:11;9.75;;;3.92;;
10847;SDS011;5477;48.806;9.154;2023-08-24T14:50:39;12.15;;;4.28;;
10847;SDS011;5477;48.806;9.154;2023-08-24T14:53:08;14.18;;;5.22;;
10847;SDS011;5477;48.806;9.154;2023-08-24T14:55:37;14.05;;;4.57;;
10847;SDS011;5477;48.806;9.154;2023-08-24T14:58:05;19.70;;;5.07;;
10847;SDS011;5477;48.806;9.154;2023-08-24T15:00:33;16.13;;;5.10;;
10847;SDS011;5477;48.806;9.154;2023-08-24T15:03:02;18.63;;;5.45;;
10847;SDS011;5477;48.806;9.154;2023-08-24T15:05:31;11.98;;;4.60;;
10847;SDS011;5477;48.806;9.154;2023-08-24T15:08:05;11.77;;;4.57;;
10847;SDS011;5477;48.806;9.154;2023-08-24T15:10:34;7.43;;;3.30;;
10847;SDS011;5477;48.806;9.154;2023-08-24T15:13:02;6.77;;;3.23;;
10847;SDS011;5477;48.806;9.154;2023-08-24T15:15:31;6.70;;;3.60;;
10847;SDS011;5477;48.806;9.154;2023-08-24T15:17:59;5.10;;;3.50;;